Hoogeveen Airport

METAR EHGG TAF EHGG
3 °C
°C
-
°C
33m
Wiek
18:57:41
LT
17:57
UTC
0 ft

1.000

2.000

3.000

4.000

5.000

OVC 1.500
MVFR
<?= Yii::t('app', 'Wind direction') ?> <?= Yii::t('app', 'of'); ?>
030°
08:25
Wschód słońca
81%
Wilgotność
Siła wiatru
Zamknięte/Śnieg
Zasięg wzroku na RWY
Stan RWY
Widzialność pionowa
Min. widoczność
CAVOK
Trend
Korekta
Raport specjalny
1029 hPa
QNH
METAR EHGG 271725Z AUTO 03006KT 9999 OVC015 03/M00 Q1029 NOSIG
Pochmurny
5 kt
5 kt
18:00
MVFR
7 kt
19:00
MVFR
7 kt
20:00
MVFR
7 kt
21:00
MVFR
7 kt
22:00
MVFR
7 kt
23:00
MVFR
7 kt
00:00
LIFR
7 kt
10 km+
Widoczność
1.500 ft
Sufit
6 kt
Wiatr
metar-taf.com/EHHO

Metar-Taf.com

Dekoder wizualny

My i strony trzecie śledzimy Twoje zachowanie internetowe na naszej stronie za pomocą plików cookie. Jeśli kontynuujesz, zakładamy, że zgadzasz się z naszymi polityka plików cookie.